Terminal Aerodrome Forecast
Issued by NWS Tampa Bay Area, FL

Home | Current Version | Previous Version | Text Only | Print | Product List | Glossary On
Versions: 1 2 3 4 5 6 7 8 9 10 11 12 13
000
FTUS42 KTBW 180500
TAFFMY
TAF
KFMY 180537Z 1806/1906 VRB04KT P6SM SCT015 BKN250
     FM181000 00000KT 4SM BR FEW005 BKN250
     FM181430 33007KT P6SM FEW035 BKN250
     FM190100 VRB03KT P6SM BKN250=

USA.gov is the U.S. government's official web portal to all federal, state and local government web resources and services.